Главная страница
METAR-TAF:

METAR-TAF

Аэропорты :

Бонрики

Тарава, Кирибати

широта: 01-21N, долгота: 172-55E, высота над уровнем моря: 2 м

Текущие метеонаблюдения

Эта сводка был подготовлена 1 час и 9 минут назад, в 02:00 UTC
Ветер 8 Узел от восточно-северо-восточный
Температура 32°C
Влажность 67%
Давление 1007 hPa
Видимость 10 км и более
небольшая облачность на высоте 1800 фута, мощно-кучевые.
Отдельные облака на высоте 2000 фута

METAR: NGTA 170200Z 06008KT 9999 FEW018TCU SCT020 32/25 Q1007

Время: 17:09 (03:09 UTC)

Прогноз

Эта сводка был подготовлена 3 часа и 44 минут назад, в 23:25 UTC
Прогноз действительный с 17-го 00 UTC до 17-го 24 UTC
Ветер 10 Узел от восточный
Видимость 10 км и более
Отдельные облака на высоте 1800 фута
Отдельные облака на высоте 10000 фута
Вероятность 30% :
временами
С 17-го 06 UTC до 17-го 18 UTC
Видимость: 5000 м
Рассеянная облачность на высоте 1500 фута
ливневые дожди

TAF: NGTA 162325Z 1700/1724 08010KT 9999 SCT018 SCT100 PROB30 TEMPO 1706/1718 5000 SHRA BKN015

Метеонаблюдения и прогнозы для более 4000 аэропортов (сводки METAR и TAF).

Имеющиеся станции представлены на карте желтыми и красными точками.

Чтобы увидеть название станции, наведите на нее мышь.

Затем щелкните, чтобы увидеть метеонаблюдения и метеопрогнозы.

Управление картой: чтобы увеличить масштаб, щелкните зеленые кнопки с черным крестиком; чтобы уменьшить масштаб, щелкните зеленую кнопку с тире; для просмотра соседних карт щелкайте зеленые стрелки.


METAR-TAF: